Time;durP1;ratioP1;P1;durP2;ratioP2;P2;SDS_P1;SDS_P2;PMS_P1;PMS_P2;Temp;Humidity;BMP_temperature;BMP_pressure;BME280_temperature;BME280_humidity;BME280_pressure;Samples;Min_cycle;Max_cycle;Signal;HPM_P1;HPM_P2
2022/10/07 00:01:08;;;;;;;11.10;4.53;;;10.80;72.00;;;;;;5002673;28;20476;-76
2022/10/07 00:03:36;;;;;;;8.93;3.90;;;10.80;72.10;;;;;;4998234;28;20492;-76
2022/10/07 00:06:10;;;;;;;7.50;3.90;;;10.70;72.10;;;;;;5000614;28;20850;-77
2022/10/07 00:08:40;;;;;;;10.00;4.60;;;10.70;72.10;;;;;;5000427;28;20480;-76
2022/10/07 00:11:10;;;;;;;8.87;4.23;;;10.70;72.20;;;;;;4998616;28;20552;-76
2022/10/07 00:13:40;;;;;;;8.50;4.20;;;10.60;72.20;;;;;;5000608;28;20493;-76
2022/10/07 00:16:11;;;;;;;15.70;3.50;;;10.60;72.30;;;;;;4998432;28;20535;-76
2022/10/07 00:18:40;;;;;;;11.33;5.00;;;10.60;72.40;;;;;;4996968;28;20487;-76
2022/10/07 00:21:12;;;;;;;14.17;4.97;;;10.60;72.40;;;;;;4999232;28;20452;-76
2022/10/07 00:23:41;;;;;;;16.23;6.30;;;10.60;72.60;;;;;;4997908;28;20629;-76
2022/10/07 00:26:12;;;;;;;15.37;5.70;;;10.60;72.70;;;;;;4998354;28;20491;-76
2022/10/07 00:28:40;;;;;;;19.43;8.60;;;10.70;72.60;;;;;;4996443;28;20489;-76
2022/10/07 00:31:12;;;;;;;16.73;7.50;;;10.60;72.60;;;;;;5005558;28;20535;-75
2022/10/07 00:33:41;;;;;;;17.53;8.47;;;10.60;72.50;;;;;;4998137;28;20453;-76
2022/10/07 00:36:13;;;;;;;14.60;7.03;;;10.60;72.50;;;;;;4994393;28;20560;-76
2022/10/07 00:38:45;;;;;;;18.70;5.33;;;10.60;72.60;;;;;;4998249;28;20488;-76
2022/10/07 00:41:18;;;;;;;9.63;4.10;;;10.50;72.60;;;;;;4993732;28;20468;-76
2022/10/07 00:43:47;;;;;;;22.87;8.87;;;10.50;72.60;;;;;;4995552;28;20461;-76
2022/10/07 00:46:25;;;;;;;85.30;31.00;;;10.50;72.60;;;;;;4993742;28;20508;-75
2022/10/07 00:48:54;;;;;;;119.73;41.57;;;10.40;72.50;;;;;;5001777;28;20495;-76
2022/10/07 00:51:23;;;;;;;131.33;41.80;;;10.40;72.50;;;;;;4997821;28;20457;-75
2022/10/07 00:53:53;;;;;;;75.23;25.80;;;10.40;72.80;;;;;;5009521;28;20457;-76
2022/10/07 00:56:23;;;;;;;32.67;13.77;;;10.40;72.90;;;;;;4995196;28;20982;-77
2022/10/07 00:58:51;;;;;;;27.30;11.77;;;10.40;72.80;;;;;;4994488;28;21074;-76
2022/10/07 01:01:20;;;;;;;28.70;9.97;;;10.40;72.70;;;;;;4994981;28;20472;-76
2022/10/07 01:03:50;;;;;;;24.60;9.70;;;10.30;72.70;;;;;;4989342;28;20469;-76
2022/10/07 01:06:17;;;;;;;124.17;43.90;;;10.30;72.90;;;;;;4994618;28;20452;-76
2022/10/07 01:08:48;;;;;;;50.13;17.07;;;10.20;72.80;;;;;;4993609;28;20487;-76
2022/10/07 01:11:35;;;;;;;43.43;16.07;;;10.20;72.90;;;;;;4997722;28;20460;-76
2022/10/07 01:14:10;;;;;;;27.83;12.10;;;10.20;73.10;;;;;;4993699;28;20957;-77
2022/10/07 01:16:48;;;;;;;20.97;7.50;;;10.20;73.20;;;;;;5011310;28;20475;-77
2022/10/07 01:19:35;;;;;;;18.70;7.90;;;10.30;73.20;;;;;;4997275;28;20488;-76
2022/10/07 01:22:14;;;;;;;8.20;4.20;;;10.30;73.10;;;;;;4995179;28;20543;-77
2022/10/07 01:24:53;;;;;;;10.10;4.50;;;10.30;73.10;;;;;;4993326;28;20465;-77
2022/10/07 01:27:25;;;;;;;11.90;4.37;;;10.30;73.20;;;;;;4995783;28;20472;-76
2022/10/07 01:29:58;;;;;;;13.00;5.30;;;10.30;73.20;;;;;;5000264;28;20456;-76
2022/10/07 01:32:31;;;;;;;9.97;4.63;;;10.30;73.20;;;;;;4998814;28;21119;-76
2022/10/07 01:35:04;;;;;;;14.20;5.97;;;10.40;73.10;;;;;;4993308;28;21189;-75
2022/10/07 01:37:36;;;;;;;11.70;6.10;;;10.40;73.10;;;;;;4999036;28;20488;-77
2022/10/07 01:40:09;;;;;;;40.77;15.17;;;10.30;73.10;;;;;;5008852;28;21042;-76
2022/10/07 01:42:42;;;;;;;35.57;13.03;;;10.30;73.10;;;;;;4993411;28;20551;-77
2022/10/07 01:45:13;;;;;;;44.77;14.77;;;10.30;73.00;;;;;;5009982;28;20997;-77
2022/10/07 01:47:41;;;;;;;25.40;7.50;;;10.20;73.10;;;;;;4995235;28;21071;-77
2022/10/07 01:50:11;;;;;;;14.40;4.77;;;10.20;73.20;;;;;;4999794;28;20461;-76
2022/10/07 01:52:54;;;;;;;13.07;4.30;;;10.20;73.10;;;;;;4993224;28;20485;-77
2022/10/07 01:55:37;;;;;;;72.23;25.80;;;10.20;73.20;;;;;;4995934;28;20491;-76
2022/10/07 01:58:21;;;;;;;67.70;23.97;;;10.20;73.20;;;;;;4996617;28;20546;-77
2022/10/07 02:00:54;;;;;;;68.57;24.20;;;10.20;73.20;;;;;;4998845;28;21039;-77
2022/10/07 02:03:39;;;;;;;103.50;32.13;;;10.10;73.20;;;;;;4994422;28;20466;-77
2022/10/07 02:06:16;;;;;;;19.73;7.87;;;10.10;73.40;;;;;;5010563;28;20457;-76
2022/10/07 02:08:48;;;;;;;18.27;6.17;;;10.20;73.40;;;;;;5008024;28;20487;-76
2022/10/07 02:11:20;;;;;;;31.63;11.53;;;10.20;73.40;;;;;;4992276;28;20458;-76
2022/10/07 02:13:59;;;;;;;23.60;8.30;;;10.20;73.50;;;;;;4995474;28;21077;-76
2022/10/07 02:16:35;;;;;;;8.10;4.03;;;10.20;73.40;;;;;;4997754;28;20501;-76
2022/10/07 02:19:08;;;;;;;11.03;4.03;;;10.10;73.40;;;;;;5000506;28;20591;-76
2022/10/07 02:21:37;;;;;;;17.73;6.93;;;10.10;73.70;;;;;;5010109;28;20984;-76
2022/10/07 02:24:10;;;;;;;32.70;10.60;;;10.20;73.80;;;;;;4995951;28;20503;-76
2022/10/07 02:26:41;;;;;;;29.60;8.70;;;10.20;73.90;;;;;;4997561;28;20465;-77
2022/10/07 02:29:14;;;;;;;107.93;34.33;;;10.30;74.00;;;;;;4994170;28;20476;-76
2022/10/07 02:31:44;;;;;;;105.47;33.90;;;10.30;73.70;;;;;;4993123;28;20465;-76
2022/10/07 02:34:17;;;;;;;54.90;18.60;;;10.20;73.80;;;;;;4995094;28;20481;-74
2022/10/07 02:36:53;;;;;;;41.57;14.80;;;10.30;74.00;;;;;;4999260;28;20477;-76
2022/10/07 02:39:21;;;;;;;28.83;11.30;;;10.30;74.10;;;;;;4999228;28;20496;-76
2022/10/07 02:41:56;;;;;;;26.80;8.67;;;10.30;74.10;;;;;;5002366;28;20464;-76
2022/10/07 02:44:33;;;;;;;13.27;5.37;;;10.40;74.20;;;;;;4998045;28;20847;-76
2022/10/07 02:47:05;;;;;;;8.93;4.30;;;10.40;74.30;;;;;;4996827;28;20589;-77
2022/10/07 02:49:37;;;;;;;11.20;3.10;;;10.50;74.30;;;;;;4992962;28;20494;-76
2022/10/07 02:52:07;;;;;;;8.57;3.03;;;10.50;74.30;;;;;;4995630;28;20986;-76
2022/10/07 02:54:41;;;;;;;10.63;4.30;;;10.50;74.40;;;;;;4995357;28;20453;-75
2022/10/07 02:57:10;;;;;;;14.67;4.20;;;10.50;74.50;;;;;;4999107;28;21073;-74
2022/10/07 02:59:41;;;;;;;9.20;3.77;;;10.60;74.50;;;;;;4992910;28;20468;-77
2022/10/07 03:02:13;;;;;;;12.77;4.23;;;10.60;74.50;;;;;;4992759;28;20464;-76
2022/10/07 03:04:42;;;;;;;12.07;3.97;;;10.70;74.60;;;;;;5011331;28;20469;-76
2022/10/07 03:07:12;;;;;;;11.00;3.77;;;10.70;74.70;;;;;;5001093;28;20459;-75
2022/10/07 03:09:41;;;;;;;14.60;5.17;;;10.80;74.80;;;;;;5013805;28;20468;-76
2022/10/07 03:12:11;;;;;;;8.60;4.17;;;10.80;74.90;;;;;;4998359;28;20842;-75
2022/10/07 03:14:40;;;;;;;9.70;3.97;;;10.80;74.80;;;;;;5001351;28;20461;-78
2022/10/07 03:17:09;;;;;;;12.33;4.10;;;10.80;74.90;;;;;;5008051;28;20509;-75
2022/10/07 03:19:37;;;;;;;11.13;3.93;;;10.90;75.00;;;;;;4998145;28;21505;-77
2022/10/07 03:22:05;;;;;;;10.50;3.87;;;10.90;75.00;;;;;;5012257;28;20465;-76
2022/10/07 03:24:35;;;;;;;11.00;3.83;;;10.90;75.10;;;;;;4995513;28;20465;-77
2022/10/07 03:27:04;;;;;;;10.37;3.73;;;10.90;75.10;;;;;;5009678;28;20950;-77
2022/10/07 03:29:34;;;;;;;10.27;4.37;;;10.90;75.10;;;;;;5000315;28;20519;-77
2022/10/07 03:32:04;;;;;;;9.60;3.67;;;10.90;75.20;;;;;;5010356;28;21210;-77
2022/10/07 03:34:33;;;;;;;7.77;3.67;;;10.90;75.30;;;;;;4996787;28;20469;-77
2022/10/07 03:37:02;;;;;;;8.20;3.47;;;11.00;75.30;;;;;;5011236;28;21073;-75
2022/10/07 03:39:30;;;;;;;8.80;3.70;;;11.00;75.30;;;;;;4995058;28;20584;-76
2022/10/07 03:41:59;;;;;;;9.83;3.93;;;11.00;75.40;;;;;;4993653;28;20465;-76
2022/10/07 03:44:27;;;;;;;10.03;3.60;;;11.00;75.40;;;;;;5002589;28;20457;-76
2022/10/07 03:46:57;;;;;;;10.63;4.37;;;11.00;75.50;;;;;;5000033;28;21152;-77
2022/10/07 03:49:28;;;;;;;7.20;3.27;;;11.00;75.50;;;;;;4998638;28;20461;-75
2022/10/07 03:51:56;;;;;;;7.63;3.67;;;11.00;75.50;;;;;;4996494;28;20460;-74
2022/10/07 03:54:24;;;;;;;5.93;3.33;;;11.00;75.60;;;;;;4991396;28;20458;-75
2022/10/07 03:56:52;;;;;;;8.73;3.97;;;11.00;75.60;;;;;;4996279;28;20499;-75
2022/10/07 03:59:20;;;;;;;10.07;3.30;;;11.00;75.60;;;;;;4993212;28;20488;-76
2022/10/07 04:01:49;;;;;;;10.10;3.47;;;11.00;75.60;;;;;;4997839;28;20998;-76
2022/10/07 04:04:19;;;;;;;11.20;3.97;;;11.00;75.70;;;;;;4997766;28;20470;-76
2022/10/07 04:06:49;;;;;;;12.00;3.37;;;11.00;75.70;;;;;;5007738;28;20452;-75
2022/10/07 04:09:17;;;;;;;7.00;3.17;;;11.00;75.80;;;;;;4996259;28;20513;-75
2022/10/07 04:11:45;;;;;;;9.93;3.33;;;11.00;75.90;;;;;;4992828;28;21061;-75
2022/10/07 04:14:13;;;;;;;10.53;3.50;;;11.00;75.90;;;;;;4996328;28;20971;-77
2022/10/07 04:16:41;;;;;;;7.50;3.63;;;11.00;76.00;;;;;;5001933;28;20468;-77
2022/10/07 04:19:12;;;;;;;7.30;3.17;;;11.00;76.00;;;;;;4997661;28;20577;-75
2022/10/07 04:21:41;;;;;;;9.73;3.30;;;11.10;76.10;;;;;;5001288;28;20560;-77
2022/10/07 04:24:11;;;;;;;9.33;3.40;;;11.10;76.00;;;;;;4997959;28;20870;-76
2022/10/07 04:26:39;;;;;;;10.03;3.07;;;11.10;76.00;;;;;;4997263;28;20465;-76
2022/10/07 04:29:07;;;;;;;7.57;4.40;;;11.00;76.00;;;;;;4996521;28;20539;-76
2022/10/07 04:31:36;;;;;;;10.00;4.27;;;11.00;76.00;;;;;;5006882;28;20466;-75
2022/10/07 04:34:05;;;;;;;10.60;4.03;;;11.00;75.90;;;;;;4990165;28;20476;-75
2022/10/07 04:36:40;;;;;;;8.17;3.53;;;11.00;76.00;;;;;;5000517;28;20559;-74
2022/10/07 04:39:12;;;;;;;10.10;3.73;;;11.00;76.00;;;;;;5007922;28;20512;-76
2022/10/07 04:41:47;;;;;;;13.37;3.73;;;11.00;76.00;;;;;;4994240;28;20469;-76
2022/10/07 04:44:20;;;;;;;8.23;3.10;;;10.90;76.10;;;;;;4992278;28;20512;-76
2022/10/07 04:46:55;;;;;;;7.20;3.10;;;10.90;76.00;;;;;;5008488;28;20469;-76
2022/10/07 04:49:25;;;;;;;9.97;3.63;;;10.90;76.00;;;;;;4992570;28;20541;-76
2022/10/07 04:51:55;;;;;;;7.80;3.20;;;10.90;76.00;;;;;;5001381;28;20473;-76
2022/10/07 04:54:29;;;;;;;9.00;3.60;;;10.90;76.00;;;;;;4994315;28;20527;-76
2022/10/07 04:56:57;;;;;;;8.53;3.40;;;10.90;76.00;;;;;;4994080;28;20496;-76
2022/10/07 04:59:27;;;;;;;10.37;4.07;;;10.90;76.00;;;;;;4998399;28;20954;-76
2022/10/07 05:01:57;;;;;;;14.20;3.77;;;10.90;76.00;;;;;;4999659;28;21161;-76
2022/10/07 05:04:26;;;;;;;9.93;3.50;;;10.80;75.90;;;;;;5002059;28;20487;-76
2022/10/07 05:06:55;;;;;;;8.57;3.60;;;10.80;75.90;;;;;;4995866;28;20458;-77
2022/10/07 05:09:24;;;;;;;8.10;3.10;;;10.80;76.00;;;;;;5009491;28;21418;-75
2022/10/07 05:11:55;;;;;;;7.63;3.27;;;10.80;76.00;;;;;;5007071;28;20453;-75
2022/10/07 05:14:23;;;;;;;8.10;3.60;;;10.70;76.10;;;;;;4992883;28;20552;-76
2022/10/07 05:16:52;;;;;;;8.67;3.73;;;10.70;76.10;;;;;;4993360;28;20856;-76
2022/10/07 05:19:24;;;;;;;11.53;4.07;;;10.70;76.10;;;;;;5011840;28;21179;-76
2022/10/07 05:21:53;;;;;;;16.03;3.70;;;10.70;76.20;;;;;;4996666;28;20452;-76
2022/10/07 05:24:21;;;;;;;7.50;3.53;;;10.70;76.20;;;;;;4994969;28;20509;-76
2022/10/07 05:26:51;;;;;;;10.30;3.63;;;10.70;76.20;;;;;;4993765;28;20978;-75
2022/10/07 05:29:20;;;;;;;10.93;3.87;;;10.70;76.30;;;;;;4997842;28;20475;-74
2022/10/07 05:31:51;;;;;;;11.57;4.23;;;10.70;76.20;;;;;;4993339;28;20496;-74
2022/10/07 05:34:23;;;;;;;10.10;4.10;;;10.70;76.20;;;;;;4997197;28;20530;-75
2022/10/07 05:36:52;;;;;;;12.37;4.07;;;10.70;76.20;;;;;;4996637;28;20560;-75
2022/10/07 05:39:20;;;;;;;6.50;3.40;;;10.70;76.20;;;;;;4995430;28;20496;-76
2022/10/07 05:41:55;;;;;;;8.60;3.97;;;10.70;76.20;;;;;;4992249;28;20462;-75
2022/10/07 05:44:30;;;;;;;12.03;3.63;;;10.60;76.20;;;;;;4997814;28;20533;-76
2022/10/07 05:47:01;;;;;;;11.43;4.30;;;10.60;76.30;;;;;;4996642;28;20488;-75
2022/10/07 05:49:29;;;;;;;9.00;4.13;;;10.70;76.30;;;;;;4993602;28;20504;-76
2022/10/07 05:51:58;;;;;;;11.30;4.27;;;10.70;76.30;;;;;;4995999;28;20457;-76
2022/10/07 05:54:26;;;;;;;10.20;4.17;;;10.70;76.40;;;;;;4994594;28;20460;-76
2022/10/07 05:56:55;;;;;;;10.20;5.07;;;10.70;76.30;;;;;;4995541;28;20547;-75
2022/10/07 05:59:24;;;;;;;7.53;4.07;;;10.70;76.40;;;;;;4993322;28;20517;-76
2022/10/07 06:01:59;;;;;;;11.03;4.90;;;10.70;76.30;;;;;;5008940;28;20916;-76
2022/10/07 06:04:28;;;;;;;14.37;5.40;;;10.70;76.40;;;;;;4997287;28;20484;-74
2022/10/07 06:06:56;;;;;;;11.27;4.20;;;10.70;76.40;;;;;;4998964;28;21021;-74
2022/10/07 06:15:04;;;;;;;7.23;3.90;;;10.60;76.40;;;;;;5008419;28;20465;-76
2022/10/07 06:17:34;;;;;;;9.17;4.17;;;10.60;76.40;;;;;;5002942;28;20484;-73
2022/10/07 06:20:07;;;;;;;8.80;4.33;;;10.60;76.40;;;;;;5015748;28;20501;-75
2022/10/07 06:22:35;;;;;;;12.60;4.67;;;10.60;76.50;;;;;;5018989;28;20552;-76
2022/10/07 06:25:03;;;;;;;8.53;4.20;;;10.60;76.50;;;;;;5005288;28;20880;-75
2022/10/07 06:27:33;;;;;;;12.90;4.73;;;10.60;76.60;;;;;;5023925;28;21035;-76
2022/10/07 06:30:01;;;;;;;9.40;4.60;;;10.70;76.60;;;;;;5002787;28;20518;-77
2022/10/07 06:32:31;;;;;;;10.30;4.37;;;10.70;76.60;;;;;;5000568;28;20559;-76
2022/10/07 06:35:02;;;;;;;8.13;4.07;;;10.70;76.60;;;;;;4998123;28;20542;-76
2022/10/07 06:37:31;;;;;;;10.67;3.83;;;10.70;76.60;;;;;;5015503;28;20485;-78
2022/10/07 06:39:59;;;;;;;11.03;4.50;;;10.70;76.70;;;;;;5013178;28;20551;-75
2022/10/07 06:42:31;;;;;;;8.20;4.10;;;10.70;76.70;;;;;;5000429;28;20461;-75
2022/10/07 06:45:23;;;;;;;8.43;4.73;;;10.70;76.60;;;;;;5004655;28;20526;-78
2022/10/07 06:47:53;;;;;;;8.47;4.00;;;10.70;76.70;;;;;;5006151;28;20481;-77
2022/10/07 06:50:23;;;;;;;10.60;4.53;;;10.70;76.80;;;;;;5014033;28;20485;-77
2022/10/07 06:52:52;;;;;;;8.47;4.07;;;10.70;76.90;;;;;;5005265;28;20468;-78
2022/10/07 06:55:20;;;;;;;6.50;3.70;;;10.70;76.90;;;;;;5004772;28;20871;-74
2022/10/07 06:57:48;;;;;;;9.67;3.90;;;10.80;76.90;;;;;;5002331;28;20473;-75
2022/10/07 07:00:19;;;;;;;9.47;3.83;;;10.80;77.00;;;;;;5000865;28;20481;-76
2022/10/07 07:02:47;;;;;;;8.90;4.07;;;10.80;76.90;;;;;;5002733;28;20580;-75
2022/10/07 07:05:16;;;;;;;9.90;4.00;;;10.80;76.90;;;;;;5001449;28;21199;-76
2022/10/07 07:07:47;;;;;;;14.90;4.23;;;10.90;77.10;;;;;;4999329;28;20497;-74
2022/10/07 07:10:16;;;;;;;11.00;5.30;;;10.90;77.10;;;;;;5014923;28;20469;-76
2022/10/07 07:12:47;;;;;;;7.63;3.80;;;10.90;77.10;;;;;;5015057;28;20541;-75
2022/10/07 07:15:16;;;;;;;8.10;4.20;;;10.90;77.20;;;;;;5014878;28;20467;-75
2022/10/07 07:17:45;;;;;;;8.63;4.00;;;11.00;77.20;;;;;;5000402;28;20478;-77
2022/10/07 07:20:14;;;;;;;6.83;3.20;;;11.00;77.10;;;;;;5001966;28;20639;-75
2022/10/07 07:22:43;;;;;;;12.00;4.33;;;11.00;77.00;;;;;;5000331;28;20450;-77
2022/10/07 07:25:12;;;;;;;11.10;3.40;;;11.10;77.00;;;;;;4995729;28;20469;-75
2022/10/07 07:27:40;;;;;;;7.27;2.90;;;11.10;77.10;;;;;;4997622;28;20484;-76
2022/10/07 07:30:12;;;;;;;8.50;3.60;;;11.10;77.20;;;;;;5000880;28;20464;-77
2022/10/07 07:32:42;;;;;;;8.83;3.20;;;11.10;77.20;;;;;;5002718;28;20865;-76
2022/10/07 07:35:10;;;;;;;8.10;2.97;;;11.20;77.20;;;;;;5000046;28;20537;-76
2022/10/07 07:37:38;;;;;;;16.83;4.30;;;11.20;77.30;;;;;;5011792;28;20485;-77
2022/10/07 07:40:08;;;;;;;6.80;3.17;;;11.20;77.30;;;;;;5016840;28;20485;-77
2022/10/07 07:42:37;;;;;;;6.87;3.40;;;11.30;77.30;;;;;;4998497;28;20476;-76
2022/10/07 07:45:09;;;;;;;10.53;3.43;;;11.30;77.30;;;;;;4996338;28;20465;-77
2022/10/07 07:47:37;;;;;;;7.63;3.57;;;11.30;77.30;;;;;;4998668;28;20486;-77
2022/10/07 07:50:06;;;;;;;10.47;4.20;;;11.30;77.30;;;;;;4995578;28;20503;-76
2022/10/07 07:52:35;;;;;;;12.40;4.50;;;11.40;77.40;;;;;;5001918;28;20462;-77
2022/10/07 07:55:06;;;;;;;7.40;3.97;;;11.40;77.40;;;;;;5001423;28;20459;-75
2022/10/07 07:57:37;;;;;;;11.83;4.80;;;11.40;77.40;;;;;;4998362;28;20489;-75
2022/10/07 08:00:10;;;;;;;18.20;6.50;;;11.50;77.40;;;;;;5011704;28;20478;-76
2022/10/07 08:02:40;;;;;;;11.80;4.53;;;11.50;77.30;;;;;;4994849;28;20457;-75
2022/10/07 08:05:12;;;;;;;11.13;4.93;;;11.50;77.40;;;;;;5001362;28;20553;-75
2022/10/07 08:07:40;;;;;;;15.37;5.67;;;11.50;77.40;;;;;;5002908;28;20474;-75
2022/10/07 08:10:10;;;;;;;11.00;4.90;;;11.50;77.50;;;;;;5014343;28;20468;-75
2022/10/07 08:12:40;;;;;;;9.23;4.07;;;11.50;77.50;;;;;;5012682;28;20887;-77
2022/10/07 08:15:09;;;;;;;13.90;4.70;;;11.60;77.60;;;;;;4999916;28;20457;-77
2022/10/07 08:17:38;;;;;;;11.37;4.00;;;11.60;77.50;;;;;;4999893;28;20492;-77
2022/10/07 08:20:09;;;;;;;16.53;5.50;;;11.60;77.50;;;;;;5000329;28;20497;-75
2022/10/07 08:22:38;;;;;;;13.53;5.87;;;11.60;77.60;;;;;;4994820;28;21022;-75
2022/10/07 08:25:07;;;;;;;8.50;3.83;;;11.60;77.70;;;;;;5000160;28;20974;-77
2022/10/07 08:27:35;;;;;;;14.37;4.57;;;11.70;77.80;;;;;;5000741;28;20488;-76
2022/10/07 08:30:06;;;;;;;9.90;4.00;;;11.70;77.80;;;;;;5000967;28;20512;-76
2022/10/07 08:32:34;;;;;;;9.50;4.03;;;11.80;77.80;;;;;;5001095;28;20466;-76
2022/10/07 08:35:02;;;;;;;9.27;4.33;;;11.80;77.80;;;;;;4998044;28;20501;-75
2022/10/07 08:37:30;;;;;;;9.50;4.10;;;11.80;77.80;;;;;;4998895;28;20492;-75
2022/10/07 08:39:58;;;;;;;12.93;5.00;;;11.90;77.90;;;;;;4996461;28;20482;-75
2022/10/07 08:42:30;;;;;;;8.60;4.00;;;11.90;77.80;;;;;;4995305;28;20462;-76
2022/10/07 08:44:59;;;;;;;14.83;6.60;;;11.90;77.80;;;;;;4997547;28;20457;-77
2022/10/07 08:47:34;;;;;;;14.87;4.40;;;11.90;77.90;;;;;;4998701;28;20554;-75
2022/10/07 08:50:06;;;;;;;13.60;3.80;;;11.90;77.90;;;;;;5001330;28;20469;-77
2022/10/07 08:52:43;;;;;;;8.83;4.23;;;11.90;78.00;;;;;;5001050;28;20468;-75
2022/10/07 08:55:18;;;;;;;11.27;4.47;;;12.00;78.10;;;;;;5002672;28;20469;-77
2022/10/07 08:57:54;;;;;;;13.23;4.37;;;12.00;78.20;;;;;;4999486;28;20484;-76
2022/10/07 09:00:23;;;;;;;10.13;4.50;;;12.10;78.20;;;;;;5001442;28;20483;-76
2022/10/07 09:03:06;;;;;;;9.50;4.40;;;12.20;78.20;;;;;;4998842;28;20942;-76
2022/10/07 09:05:39;;;;;;;11.50;4.10;;;12.20;78.30;;;;;;5000683;28;20449;-76
2022/10/07 09:08:17;;;;;;;13.03;3.83;;;12.30;78.30;;;;;;5004820;28;20519;-76
2022/10/07 09:10:48;;;;;;;10.67;4.43;;;12.30;78.30;;;;;;5003534;28;20519;-77
2022/10/07 09:13:20;;;;;;;16.50;4.53;;;12.40;78.30;;;;;;5000964;28;20512;-76
2022/10/07 09:16:19;;;;;;;8.70;3.63;;;12.40;78.20;;;;;;4997670;28;20469;-76
2022/10/07 09:18:52;;;;;;;12.13;4.53;;;12.50;78.20;;;;;;4996404;28;20480;-76
2022/10/07 09:21:24;;;;;;;8.30;4.30;;;12.50;78.20;;;;;;4996237;28;20539;-76
2022/10/07 09:23:56;;;;;;;12.13;5.10;;;12.50;78.20;;;;;;4998462;28;20457;-76
2022/10/07 09:26:27;;;;;;;8.13;3.70;;;12.60;78.20;;;;;;4997018;28;20467;-76
2022/10/07 09:28:55;;;;;;;9.37;3.90;;;12.60;78.20;;;;;;5001745;28;20496;-77
2022/10/07 09:31:24;;;;;;;13.13;4.27;;;12.70;78.30;;;;;;4996040;28;20458;-76
2022/10/07 09:33:54;;;;;;;9.87;4.27;;;12.70;78.30;;;;;;4998917;28;20472;-76
2022/10/07 09:36:22;;;;;;;11.90;4.20;;;12.80;78.30;;;;;;5005094;28;20465;-76
2022/10/07 09:38:52;;;;;;;11.53;3.60;;;12.80;78.20;;;;;;4998473;28;21438;-77
2022/10/07 09:41:29;;;;;;;7.67;3.73;;;12.90;78.20;;;;;;4997438;28;20962;-77
2022/10/07 09:44:02;;;;;;;13.50;4.20;;;12.90;78.40;;;;;;4996254;28;20473;-77
2022/10/07 09:46:46;;;;;;;14.40;4.07;;;13.00;78.40;;;;;;4993734;28;20517;-77
2022/10/07 09:49:36;;;;;;;12.60;4.20;;;13.00;78.50;;;;;;4995801;28;20509;-77
2022/10/07 09:52:06;;;;;;;10.37;4.50;;;13.10;78.40;;;;;;4993849;28;20515;-75
2022/10/07 09:54:37;;;;;;;8.93;3.60;;;13.20;78.40;;;;;;4993725;28;20504;-75
2022/10/07 09:57:06;;;;;;;10.00;4.07;;;13.20;78.50;;;;;;4993173;28;21033;-75
2022/10/07 09:59:36;;;;;;;13.47;3.80;;;13.20;78.50;;;;;;4996089;28;20472;-75
2022/10/07 10:02:20;;;;;;;9.87;3.93;;;13.30;78.60;;;;;;4997885;28;20456;-75
2022/10/07 10:04:52;;;;;;;14.07;4.00;;;13.40;78.60;;;;;;4998006;28;20453;-76
2022/10/07 10:07:24;;;;;;;9.30;4.17;;;13.50;78.60;;;;;;4998733;28;20465;-75
2022/10/07 10:09:54;;;;;;;9.23;4.10;;;13.50;78.50;;;;;;4996629;28;20466;-76
2022/10/07 10:12:24;;;;;;;8.97;3.40;;;13.60;78.50;;;;;;4999229;28;21022;-76
2022/10/07 10:14:54;;;;;;;9.07;3.43;;;13.60;78.40;;;;;;4997583;28;20453;-75
2022/10/07 10:17:33;;;;;;;9.83;4.27;;;13.70;78.40;;;;;;4999720;28;20469;-76
2022/10/07 10:20:27;;;;;;;9.77;4.40;;;13.70;78.40;;;;;;5001247;28;20502;-76
2022/10/07 10:22:55;;;;;;;8.63;3.80;;;13.70;78.50;;;;;;5001675;28;20885;-75
2022/10/07 10:28:28;;;;;;;10.87;4.57;;;13.80;78.50;;;;;;4999593;28;20514;-75
2022/10/07 10:31:02;;;;;;;9.63;3.63;;;13.80;78.60;;;;;;4995868;28;20824;-76
2022/10/07 10:33:39;;;;;;;10.80;3.80;;;13.90;78.60;;;;;;5000379;28;20464;-76
2022/10/07 10:36:16;;;;;;;11.03;3.70;;;13.90;78.60;;;;;;5003665;28;20463;-77
2022/10/07 10:38:50;;;;;;;15.20;4.10;;;14.00;78.60;;;;;;5012420;28;20921;-78
2022/10/07 10:41:28;;;;;;;8.30;3.40;;;14.10;78.70;;;;;;5000431;28;20495;-77
2022/10/07 10:44:20;;;;;;;11.63;3.83;;;14.10;78.70;;;;;;5004356;28;21010;-78
2022/10/07 10:46:58;;;;;;;9.03;3.63;;;14.20;78.60;;;;;;5000141;28;20464;-77
2022/10/07 10:49:32;;;;;;;10.63;3.50;;;14.20;78.70;;;;;;5015923;28;20481;-77
2022/10/07 10:52:21;;;;;;;9.07;3.43;;;14.30;78.70;;;;;;5000860;28;20550;-77
2022/10/07 10:55:11;;;;;;;10.07;3.70;;;14.40;78.80;;;;;;4999437;28;21013;-77
2022/10/07 10:57:50;;;;;;;13.43;4.57;;;14.40;78.80;;;;;;4996151;28;21085;-77
2022/10/07 11:00:22;;;;;;;11.80;3.20;;;14.50;78.90;;;;;;4997073;28;20518;-77
2022/10/07 11:03:17;;;;;;;10.93;3.53;;;14.60;78.90;;;;;;5004725;28;20467;-76
2022/10/07 11:05:47;;;;;;;13.30;3.00;;;14.60;78.90;;;;;;5001764;28;20495;-77
2022/10/07 11:08:21;;;;;;;8.73;3.50;;;14.70;78.90;;;;;;4994025;28;20515;-78
2022/10/07 11:10:58;;;;;;;12.80;3.43;;;14.70;78.90;;;;;;4998505;28;20437;-78
2022/10/07 11:13:34;;;;;;;11.63;3.43;;;14.80;78.90;;;;;;4999977;28;20464;-76
2022/10/07 11:16:08;;;;;;;10.00;3.70;;;14.80;78.90;;;;;;5002998;28;20460;-77
2022/10/07 11:18:41;;;;;;;10.73;3.37;;;14.80;78.90;;;;;;5000029;28;20500;-78
2022/10/07 11:21:17;;;;;;;9.80;3.47;;;14.90;78.90;;;;;;4998081;28;20473;-78
2022/10/07 11:23:54;;;;;;;7.60;3.07;;;14.90;78.80;;;;;;4996730;28;20822;-78
2022/10/07 11:26:28;;;;;;;8.40;2.90;;;15.00;78.70;;;;;;5001581;28;20963;-78
2022/10/07 11:29:10;;;;;;;10.13;3.30;;;15.00;78.70;;;;;;5000061;28;20547;-78
2022/10/07 11:31:41;;;;;;;13.80;3.90;;;15.00;78.70;;;;;;4999504;28;20461;-78
2022/10/07 11:34:16;;;;;;;9.37;3.03;;;15.10;78.80;;;;;;5001789;28;21130;-78
2022/10/07 11:36:51;;;;;;;8.10;3.20;;;15.10;79.00;;;;;;5000544;28;20463;-76
2022/10/07 11:39:21;;;;;;;7.17;3.00;;;15.20;79.00;;;;;;4999398;28;20558;-79
2022/10/07 11:41:55;;;;;;;7.57;3.47;;;15.20;79.00;;;;;;5000871;28;20469;-76
2022/10/07 11:44:28;;;;;;;10.10;2.83;;;15.30;79.10;;;;;;5000554;28;20946;-79
2022/10/07 11:46:59;;;;;;;12.10;3.20;;;15.30;79.10;;;;;;5014491;28;20520;-78
2022/10/07 11:49:31;;;;;;;9.73;3.07;;;15.40;79.10;;;;;;4997180;28;20512;-78
2022/10/07 11:52:03;;;;;;;13.40;4.30;;;15.50;79.20;;;;;;4996250;28;20456;-78
2022/10/07 11:54:42;;;;;;;7.90;2.77;;;15.50;79.10;;;;;;4996278;28;20511;-78
2022/10/07 11:57:21;;;;;;;12.50;3.43;;;15.60;79.00;;;;;;5000908;28;20449;-77
2022/10/07 11:59:51;;;;;;;16.03;3.20;;;15.60;79.10;;;;;;4999271;28;21146;-79
2022/10/07 12:02:39;;;;;;;13.83;4.33;;;15.70;79.10;;;;;;4998718;28;20511;-77
2022/10/07 12:05:46;;;;;;;10.00;3.33;;;15.80;79.10;;;;;;5000203;28;21007;-79
2022/10/07 12:08:40;;;;;;;9.03;3.50;;;15.80;79.10;;;;;;5000385;28;20480;-79
2022/10/07 12:11:46;;;;;;;12.13;3.80;;;15.90;79.10;;;;;;4988771;28;20477;-77
2022/10/07 12:14:32;;;;;;;11.40;2.87;;;16.00;79.10;;;;;;4997435;28;21089;-78
2022/10/07 12:17:18;;;;;;;9.53;2.93;;;16.00;79.10;;;;;;4999463;28;20510;-77
2022/10/07 12:19:46;;;;;;;17.80;3.90;;;16.10;79.10;;;;;;4999270;28;21375;-77
2022/10/07 12:22:18;;;;;;;8.93;3.63;;;16.20;79.10;;;;;;4997212;28;20505;-79
2022/10/07 12:25:28;;;;;;;18.83;5.03;;;16.30;79.10;;;;;;4996892;28;20453;-79
2022/10/07 12:27:56;;;;;;;10.50;3.57;;;16.30;79.00;;;;;;5000870;28;20476;-77
2022/10/07 12:30:41;;;;;;;9.70;3.50;;;16.30;78.90;;;;;;4996691;28;20468;-79
2022/10/07 12:33:25;;;;;;;8.80;3.70;;;16.40;78.90;;;;;;5001613;28;20465;-78
2022/10/07 12:35:53;;;;;;;8.77;3.57;;;16.40;78.90;;;;;;4999278;28;20457;-79
2022/10/07 12:38:27;;;;;;;20.37;6.93;;;16.50;78.90;;;;;;5000315;28;20497;-79
2022/10/07 12:41:25;;;;;;;10.30;4.43;;;16.50;78.80;;;;;;5000354;28;20543;-78
2022/10/07 12:43:59;;;;;;;9.77;4.03;;;16.50;78.70;;;;;;4972982;28;20492;-79
2022/10/07 12:46:33;;;;;;;13.30;4.50;;;16.50;78.70;;;;;;5001372;28;20451;-78
2022/10/07 12:49:04;;;;;;;9.20;3.87;;;16.60;78.80;;;;;;5001957;28;21123;-79
2022/10/07 12:51:36;;;;;;;13.13;3.90;;;16.70;78.90;;;;;;5017577;28;20469;-79
2022/10/07 12:54:07;;;;;;;7.77;3.60;;;16.70;78.70;;;;;;5000341;28;20465;-75
2022/10/07 12:56:36;;;;;;;8.63;3.07;;;16.80;78.50;;;;;;5019049;28;20473;-78
2022/10/07 12:59:49;;;;;;;20.47;6.30;;;16.80;78.60;;;;;;5006865;28;20562;-79
2022/10/07 13:02:59;;;;;;;9.70;4.30;;;16.80;78.60;;;;;;5008701;28;20484;-79
2022/10/07 13:06:28;;;;;;;13.13;3.43;;;16.90;78.60;;;;;;4959910;28;20468;-78
2022/10/07 13:09:31;;;;;;;8.60;4.20;;;17.00;78.60;;;;;;4997781;28;20476;-78
2022/10/07 13:12:24;;;;;;;10.63;4.30;;;17.00;78.60;;;;;;5010725;28;20468;-78
2022/10/07 13:15:12;;;;;;;7.17;3.60;;;17.10;78.50;;;;;;5008576;28;20520;-77
2022/10/07 13:17:50;;;;;;;11.23;4.93;;;17.10;78.50;;;;;;4997011;28;20571;-78
2022/10/07 13:20:32;;;;;;;10.77;4.20;;;17.10;78.40;;;;;;4994371;28;20476;-76